Time;durP1;ratioP1;P1;durP2;ratioP2;P2;SDS_P1;SDS_P2;PMS_P1;PMS_P2;Temp;Humidity;BMP_temperature;BMP_pressure;BME280_temperature;BME280_humidity;BME280_pressure;Samples;Min_cycle;Max_cycle;Signal;HPM_P1;HPM_P2
2021/10/19 00:01:24;;;;;;;;;21.25;21.25;;;;;;;;5062194;28;8823;-81
2021/10/19 00:03:51;;;;;;;;;22.25;20.00;;;;;;;;5063742;28;8949;-82
2021/10/19 00:06:18;;;;;;;;;19.25;18.25;;;;;;;;5065003;28;8989;-79
2021/10/19 00:08:45;;;;;;;;;22.25;22.25;;;;;;;;5066287;28;8885;-75
2021/10/19 00:11:13;;;;;;;;;24.25;22.25;;;;;;;;5066034;28;8881;-77
2021/10/19 00:13:42;;;;;;;;;19.25;19.25;;;;;;;;5065523;28;8870;-81
2021/10/19 00:16:10;;;;;;;;;23.50;23.50;;;;;;;;5066223;28;8897;-75
2021/10/19 00:18:37;;;;;;;;;19.25;19.25;;;;;;;;5066674;28;8858;-77
2021/10/19 00:21:05;;;;;;;;;23.25;23.25;;;;;;;;5065957;28;9028;-81
2021/10/19 00:23:33;;;;;;;;;20.00;20.00;;;;;;;;5064672;28;8867;-79
2021/10/19 00:26:00;;;;;;;;;21.00;19.50;;;;;;;;5064815;28;10094;-82
2021/10/19 00:28:28;;;;;;;;;25.25;23.25;;;;;;;;5064994;28;8877;-74
2021/10/19 00:30:56;;;;;;;;;23.00;23.00;;;;;;;;5063895;28;8835;-77
2021/10/19 00:33:24;;;;;;;;;25.25;24.25;;;;;;;;5064431;28;8977;-77
2021/10/19 00:35:51;;;;;;;;;26.75;26.25;;;;;;;;5063018;28;8894;-75
2021/10/19 00:38:19;;;;;;;;;18.50;17.00;;;;;;;;5062786;28;9096;-75
2021/10/19 00:40:46;;;;;;;;;19.00;19.00;;;;;;;;5064529;28;9645;-80
2021/10/19 00:43:13;;;;;;;;;22.50;19.75;;;;;;;;5064732;28;8896;-81
2021/10/19 00:45:40;;;;;;;;;19.00;19.00;;;;;;;;5064733;28;8912;-82
2021/10/19 00:48:11;;;;;;;;;24.00;21.75;;;;;;;;5065300;28;8998;-76
2021/10/19 00:50:39;;;;;;;;;18.25;17.75;;;;;;;;5064514;28;8843;-78
2021/10/19 00:53:07;;;;;;;;;22.50;17.25;;;;;;;;5066793;28;8868;-80
2021/10/19 00:55:34;;;;;;;;;24.25;22.00;;;;;;;;5065265;28;8948;-83
2021/10/19 00:58:02;;;;;;;;;26.00;20.00;;;;;;;;5065724;28;8862;-76
2021/10/19 01:00:29;;;;;;;;;22.50;22.50;;;;;;;;5063417;28;8819;-75
2021/10/19 01:02:57;;;;;;;;;24.00;24.00;;;;;;;;5066305;28;9675;-75
2021/10/19 01:05:26;;;;;;;;;17.50;17.50;;;;;;;;5064320;28;8862;-78
2021/10/19 01:07:53;;;;;;;;;22.50;22.50;;;;;;;;5064856;28;9721;-75
2021/10/19 01:10:21;;;;;;;;;21.25;17.75;;;;;;;;5066050;28;8957;-76
2021/10/19 01:12:49;;;;;;;;;18.50;15.75;;;;;;;;5063391;28;9620;-76
2021/10/19 01:15:18;;;;;;;;;22.50;22.50;;;;;;;;5062805;28;8850;-80
2021/10/19 01:17:46;;;;;;;;;16.75;16.75;;;;;;;;5060513;28;8939;-75
2021/10/19 01:20:26;;;;;;;;;22.75;19.75;;;;;;;;5069415;28;8848;-75
2021/10/19 01:22:53;;;;;;;;;20.75;18.75;;;;;;;;5064516;28;9046;-78
2021/10/19 01:25:23;;;;;;;;;24.00;20.50;;;;;;;;5062508;28;8858;-79
2021/10/19 01:27:52;;;;;;;;;18.75;18.75;;;;;;;;5064607;28;8878;-77
2021/10/19 01:30:19;;;;;;;;;26.25;22.50;;;;;;;;5063175;28;8863;-78
2021/10/19 01:32:47;;;;;;;;;16.50;15.25;;;;;;;;5065183;28;8842;-78
2021/10/19 01:35:14;;;;;;;;;23.25;20.25;;;;;;;;5065228;28;8877;-82
2021/10/19 01:37:43;;;;;;;;;22.75;21.50;;;;;;;;5062680;28;8987;-84
2021/10/19 01:40:13;;;;;;;;;23.50;21.00;;;;;;;;5064224;28;8882;-81
2021/10/19 01:42:41;;;;;;;;;22.00;19.50;;;;;;;;5065816;28;8869;-75
2021/10/19 01:45:14;;;;;;;;;17.50;17.50;;;;;;;;5063798;28;8858;-81
2021/10/19 01:47:41;;;;;;;;;22.75;22.75;;;;;;;;5063597;28;9012;-76
2021/10/19 01:50:09;;;;;;;;;19.50;17.25;;;;;;;;5065229;28;9069;-80
2021/10/19 01:52:37;;;;;;;;;17.75;17.75;;;;;;;;5065041;28;8876;-78
2021/10/19 01:55:09;;;;;;;;;18.25;17.50;;;;;;;;5065217;28;8861;-80
2021/10/19 01:57:37;;;;;;;;;19.25;18.00;;;;;;;;5063626;28;8878;-79
2021/10/19 02:00:06;;;;;;;;;19.50;17.25;;;;;;;;5063825;28;8874;-78
2021/10/19 02:02:33;;;;;;;;;16.75;16.25;;;;;;;;5063093;28;8847;-80
2021/10/19 02:05:01;;;;;;;;;17.25;17.00;;;;;;;;5063826;28;8981;-80
2021/10/19 02:07:28;;;;;;;;;14.25;14.25;;;;;;;;5062118;28;8838;-81
2021/10/19 02:09:55;;;;;;;;;21.00;17.75;;;;;;;;5064316;28;8880;-77
2021/10/19 02:12:24;;;;;;;;;19.00;18.50;;;;;;;;5065244;28;8998;-78
2021/10/19 02:14:51;;;;;;;;;17.00;16.00;;;;;;;;5061608;28;8870;-77
2021/10/19 02:17:18;;;;;;;;;21.75;18.25;;;;;;;;5061298;28;8955;-81
2021/10/19 02:19:46;;;;;;;;;16.75;15.75;;;;;;;;5059366;28;8858;-83
2021/10/19 02:22:13;;;;;;;;;20.50;20.50;;;;;;;;5064777;28;8969;-84
2021/10/19 02:24:40;;;;;;;;;15.00;15.00;;;;;;;;5066127;28;8870;-79
2021/10/19 02:27:08;;;;;;;;;15.50;15.50;;;;;;;;5062078;28;8882;-74
2021/10/19 02:29:37;;;;;;;;;14.50;14.50;;;;;;;;5063808;28;8893;-76
2021/10/19 02:32:05;;;;;;;;;14.25;14.25;;;;;;;;5062017;28;8850;-79
2021/10/19 02:34:32;;;;;;;;;15.50;15.50;;;;;;;;5063787;28;9644;-76
2021/10/19 02:36:59;;;;;;;;;15.50;14.75;;;;;;;;5064433;28;8893;-78
2021/10/19 02:39:27;;;;;;;;;19.50;18.25;;;;;;;;5063370;28;8869;-75
2021/10/19 02:41:54;;;;;;;;;26.00;24.00;;;;;;;;5062013;28;8890;-81
2021/10/19 02:44:21;;;;;;;;;17.25;17.25;;;;;;;;5062252;28;8865;-82
2021/10/19 02:46:50;;;;;;;;;19.50;19.50;;;;;;;;5063197;28;8989;-76
2021/10/19 02:49:18;;;;;;;;;16.00;16.00;;;;;;;;5073280;28;9718;-84
2021/10/19 02:51:45;;;;;;;;;17.25;16.25;;;;;;;;5062346;28;8859;-75
2021/10/19 02:54:12;;;;;;;;;15.75;15.75;;;;;;;;5063400;28;8891;-76
2021/10/19 02:56:41;;;;;;;;;17.00;14.75;;;;;;;;5061830;28;8877;-78
2021/10/19 02:59:08;;;;;;;;;16.00;15.00;;;;;;;;5061727;28;8858;-78
2021/10/19 03:01:36;;;;;;;;;16.50;13.50;;;;;;;;5061678;28;8807;-76
2021/10/19 03:04:04;;;;;;;;;13.25;13.25;;;;;;;;5065051;28;8863;-79
2021/10/19 03:06:32;;;;;;;;;14.50;14.50;;;;;;;;5062333;28;8866;-79
2021/10/19 03:08:59;;;;;;;;;13.75;13.75;;;;;;;;5066054;28;8967;-82
2021/10/19 03:11:26;;;;;;;;;14.75;12.75;;;;;;;;5061270;28;8875;-82
2021/10/19 03:13:54;;;;;;;;;13.00;13.00;;;;;;;;5063138;28;8897;-77
2021/10/19 03:16:21;;;;;;;;;14.75;14.75;;;;;;;;5062195;28;8957;-82
2021/10/19 03:18:49;;;;;;;;;13.50;13.50;;;;;;;;5059261;28;8862;-78
2021/10/19 03:21:18;;;;;;;;;16.00;14.75;;;;;;;;5062359;28;8859;-76
2021/10/19 03:23:46;;;;;;;;;11.75;10.25;;;;;;;;5060388;28;8890;-75
2021/10/19 03:26:16;;;;;;;;;13.00;13.00;;;;;;;;5062357;28;9010;-79
2021/10/19 03:28:44;;;;;;;;;12.25;12.25;;;;;;;;5061256;28;8918;-78
2021/10/19 03:31:12;;;;;;;;;15.75;14.00;;;;;;;;5062370;28;8805;-79
2021/10/19 03:33:40;;;;;;;;;16.00;16.00;;;;;;;;5045295;28;9644;-79
2021/10/19 03:36:09;;;;;;;;;13.00;11.50;;;;;;;;5061832;28;9674;-78
2021/10/19 03:38:39;;;;;;;;;14.25;14.00;;;;;;;;5061505;28;8851;-84
2021/10/19 03:41:07;;;;;;;;;13.50;12.75;;;;;;;;5060173;28;8871;-79
2021/10/19 03:43:34;;;;;;;;;13.25;13.25;;;;;;;;5063640;28;9017;-80
2021/10/19 03:46:02;;;;;;;;;14.00;14.00;;;;;;;;5061527;28;9620;-80
2021/10/19 03:48:30;;;;;;;;;14.00;13.50;;;;;;;;5061746;28;8875;-81
2021/10/19 03:50:57;;;;;;;;;10.75;10.75;;;;;;;;5062798;28;8854;-80
2021/10/19 03:53:24;;;;;;;;;14.50;13.75;;;;;;;;5061789;28;8873;-76
2021/10/19 03:55:55;;;;;;;;;11.75;11.75;;;;;;;;5064589;28;8873;-77
2021/10/19 03:58:23;;;;;;;;;14.75;14.00;;;;;;;;5060844;28;9488;-81
2021/10/19 04:00:50;;;;;;;;;16.00;14.75;;;;;;;;5062139;28;8791;-81
2021/10/19 04:03:17;;;;;;;;;15.00;15.00;;;;;;;;5061334;28;8850;-75
2021/10/19 04:05:44;;;;;;;;;13.50;13.50;;;;;;;;5062144;28;8858;-82
2021/10/19 04:08:12;;;;;;;;;17.75;14.75;;;;;;;;5063192;28;8833;-79
2021/10/19 04:10:39;;;;;;;;;18.25;16.50;;;;;;;;5061695;28;8861;-79
2021/10/19 04:13:08;;;;;;;;;17.50;15.00;;;;;;;;5061625;28;8870;-79
2021/10/19 04:15:41;;;;;;;;;16.00;14.00;;;;;;;;5063301;28;8867;-74
2021/10/19 04:18:09;;;;;;;;;14.00;12.75;;;;;;;;5062765;28;8862;-80
2021/10/19 04:20:36;;;;;;;;;14.75;14.75;;;;;;;;5061893;28;9616;-82
2021/10/19 04:23:03;;;;;;;;;14.00;14.00;;;;;;;;5064076;28;8855;-75
2021/10/19 04:25:31;;;;;;;;;14.50;14.25;;;;;;;;5061340;28;8882;-75
2021/10/19 04:27:58;;;;;;;;;13.25;12.00;;;;;;;;5062630;28;8879;-80
2021/10/19 04:30:27;;;;;;;;;14.25;14.25;;;;;;;;5061913;28;8771;-79
2021/10/19 04:32:54;;;;;;;;;15.00;15.00;;;;;;;;5061967;28;8851;-79
2021/10/19 04:35:21;;;;;;;;;19.25;17.75;;;;;;;;5063594;28;9640;-88
2021/10/19 04:37:48;;;;;;;;;12.75;12.75;;;;;;;;5059847;28;8879;-74
2021/10/19 04:40:16;;;;;;;;;17.00;16.00;;;;;;;;5063188;28;8902;-74
2021/10/19 04:42:43;;;;;;;;;16.75;16.75;;;;;;;;5062485;28;8873;-80
2021/10/19 04:45:11;;;;;;;;;16.75;16.75;;;;;;;;5062869;28;8977;-79
2021/10/19 04:47:40;;;;;;;;;13.50;13.50;;;;;;;;5062115;28;9731;-80
2021/10/19 04:50:08;;;;;;;;;15.75;15.75;;;;;;;;5062681;28;8866;-75
2021/10/19 04:52:36;;;;;;;;;15.50;14.25;;;;;;;;5067656;28;8823;-76
2021/10/19 04:55:04;;;;;;;;;11.50;10.50;;;;;;;;5063889;28;8878;-76
2021/10/19 04:57:31;;;;;;;;;15.00;15.00;;;;;;;;5065169;28;8893;-74
2021/10/19 04:59:58;;;;;;;;;14.00;13.25;;;;;;;;5064455;28;8880;-83
2021/10/19 05:02:25;;;;;;;;;18.25;16.75;;;;;;;;5066247;28;8835;-76
2021/10/19 05:04:54;;;;;;;;;16.00;14.50;;;;;;;;5065305;28;8889;-74
2021/10/19 05:07:22;;;;;;;;;21.25;19.50;;;;;;;;5065640;28;8870;-73
2021/10/19 05:09:49;;;;;;;;;15.25;15.25;;;;;;;;5098398;28;8835;-78
2021/10/19 05:12:16;;;;;;;;;15.25;15.25;;;;;;;;5064654;28;8906;-80
2021/10/19 05:14:44;;;;;;;;;14.25;13.50;;;;;;;;5064161;28;8889;-83
2021/10/19 05:17:11;;;;;;;;;17.50;15.75;;;;;;;;5064898;28;8871;-78
2021/10/19 05:19:38;;;;;;;;;13.75;13.75;;;;;;;;5066250;28;8862;-76
2021/10/19 05:22:07;;;;;;;;;15.00;12.25;;;;;;;;5065955;28;9631;-78
2021/10/19 05:24:34;;;;;;;;;9.50;9.50;;;;;;;;5064336;28;8947;-76
2021/10/19 05:27:01;;;;;;;;;13.00;10.75;;;;;;;;5064692;28;8866;-79
2021/10/19 05:29:29;;;;;;;;;15.50;13.25;;;;;;;;5061475;28;8993;-78
2021/10/19 05:31:57;;;;;;;;;13.50;11.00;;;;;;;;5063017;28;8965;-76
2021/10/19 05:34:24;;;;;;;;;14.50;12.75;;;;;;;;5061824;28;8901;-78
2021/10/19 05:36:51;;;;;;;;;11.75;11.75;;;;;;;;5064420;28;8987;-77
2021/10/19 05:39:20;;;;;;;;;11.75;11.75;;;;;;;;5062807;28;8865;-77
2021/10/19 05:41:48;;;;;;;;;11.25;11.25;;;;;;;;5039064;28;8887;-77
2021/10/19 05:44:15;;;;;;;;;12.75;12.75;;;;;;;;5064228;28;8842;-79
2021/10/19 05:46:42;;;;;;;;;17.50;14.50;;;;;;;;5062482;28;8875;-80
2021/10/19 05:49:10;;;;;;;;;13.25;11.00;;;;;;;;5064709;28;8863;-79
2021/10/19 05:51:37;;;;;;;;;13.75;13.75;;;;;;;;5060302;28;8871;-81
2021/10/19 05:54:04;;;;;;;;;13.25;13.25;;;;;;;;5066768;28;8904;-80
2021/10/19 05:56:33;;;;;;;;;17.00;14.25;;;;;;;;5059578;28;8867;-79
2021/10/19 05:59:00;;;;;;;;;11.50;11.00;;;;;;;;5065212;28;9729;-79
2021/10/19 06:01:27;;;;;;;;;12.75;12.75;;;;;;;;5063002;28;8872;-79
2021/10/19 06:03:55;;;;;;;;;12.50;12.50;;;;;;;;5064771;28;8863;-79
2021/10/19 06:06:22;;;;;;;;;13.75;13.00;;;;;;;;5064557;28;8866;-78
2021/10/19 06:08:51;;;;;;;;;10.50;10.50;;;;;;;;5062969;28;8866;-78
2021/10/19 06:11:19;;;;;;;;;18.25;12.25;;;;;;;;5069966;28;8901;-79
2021/10/19 06:13:48;;;;;;;;;14.00;11.75;;;;;;;;5061675;28;8854;-78
2021/10/19 06:16:15;;;;;;;;;11.50;11.50;;;;;;;;5063112;28;8874;-79
2021/10/19 06:18:42;;;;;;;;;13.50;13.50;;;;;;;;5063302;28;8881;-78
2021/10/19 06:21:10;;;;;;;;;17.25;17.25;;;;;;;;5063664;28;8869;-80
2021/10/19 06:23:37;;;;;;;;;14.75;10.00;;;;;;;;5066226;28;8940;-79
2021/10/19 06:26:05;;;;;;;;;14.25;14.00;;;;;;;;5064771;28;8993;-79
2021/10/19 06:28:33;;;;;;;;;12.25;12.25;;;;;;;;5063807;28;8977;-77
2021/10/19 06:31:01;;;;;;;;;15.50;15.50;;;;;;;;5061370;28;8816;-79
2021/10/19 06:33:29;;;;;;;;;11.25;10.00;;;;;;;;5063993;28;8866;-79
2021/10/19 06:35:56;;;;;;;;;17.50;14.75;;;;;;;;5062070;28;8876;-80
2021/10/19 06:38:23;;;;;;;;;13.25;11.00;;;;;;;;5063552;28;8905;-79
2021/10/19 06:40:51;;;;;;;;;14.50;14.50;;;;;;;;5062489;28;9698;-80
2021/10/19 06:43:18;;;;;;;;;11.75;11.75;;;;;;;;5063023;28;8875;-79
2021/10/19 06:45:46;;;;;;;;;17.00;15.00;;;;;;;;5075121;28;8886;-80
2021/10/19 06:48:14;;;;;;;;;13.00;13.00;;;;;;;;5066148;28;9686;-78
2021/10/19 06:50:42;;;;;;;;;16.00;15.00;;;;;;;;5064079;28;8884;-80
2021/10/19 06:53:09;;;;;;;;;18.25;18.25;;;;;;;;5062704;28;8923;-79
2021/10/19 06:55:36;;;;;;;;;16.25;16.25;;;;;;;;5063227;28;8944;-77
2021/10/19 06:58:04;;;;;;;;;14.75;14.75;;;;;;;;5062795;28;8891;-79
2021/10/19 07:00:31;;;;;;;;;16.25;16.25;;;;;;;;5059102;28;8810;-78
2021/10/19 07:02:58;;;;;;;;;13.25;13.25;;;;;;;;5062913;28;8862;-81
2021/10/19 07:05:28;;;;;;;;;17.25;13.75;;;;;;;;5060672;28;8935;-80
2021/10/19 07:07:55;;;;;;;;;15.25;11.75;;;;;;;;5061665;28;8858;-77
2021/10/19 07:10:22;;;;;;;;;15.00;15.00;;;;;;;;5063872;28;8894;-76
2021/10/19 07:12:50;;;;;;;;;15.25;14.75;;;;;;;;5061944;28;8893;-74
2021/10/19 07:15:17;;;;;;;;;16.75;15.75;;;;;;;;5062670;28;8850;-74
2021/10/19 07:17:44;;;;;;;;;18.00;15.00;;;;;;;;5063024;28;8855;-74
2021/10/19 07:20:13;;;;;;;;;16.00;16.00;;;;;;;;5065986;28;8886;-74
2021/10/19 07:22:43;;;;;;;;;15.00;15.00;;;;;;;;5062052;28;8896;-74
2021/10/19 07:25:11;;;;;;;;;11.75;11.75;;;;;;;;5063783;28;8843;-74
2021/10/19 07:27:39;;;;;;;;;14.75;14.75;;;;;;;;5061595;28;8866;-74
2021/10/19 07:30:07;;;;;;;;;13.75;9.50;;;;;;;;5061467;28;8850;-73
2021/10/19 07:32:35;;;;;;;;;10.25;10.25;;;;;;;;5062600;28;8862;-73
2021/10/19 07:35:03;;;;;;;;;9.75;9.75;;;;;;;;5061816;28;8866;-74
2021/10/19 07:37:36;;;;;;;;;10.75;10.75;;;;;;;;5062123;28;8842;-72
2021/10/19 07:40:07;;;;;;;;;13.25;13.25;;;;;;;;5061341;28;8888;-73
2021/10/19 07:42:34;;;;;;;;;16.75;13.50;;;;;;;;5065086;28;8989;-72
2021/10/19 07:45:02;;;;;;;;;15.75;15.75;;;;;;;;5063211;28;8877;-72
2021/10/19 07:47:29;;;;;;;;;11.33;11.33;;;;;;;;5061507;28;8869;-73
2021/10/19 07:49:56;;;;;;;;;13.25;13.25;;;;;;;;5062940;28;8869;-73
2021/10/19 07:52:24;;;;;;;;;15.25;15.25;;;;;;;;5062826;28;8886;-72
2021/10/19 07:54:51;;;;;;;;;18.50;17.25;;;;;;;;5065508;28;8835;-74
2021/10/19 07:57:20;;;;;;;;;18.25;14.25;;;;;;;;5061171;28;9017;-73
2021/10/19 07:59:48;;;;;;;;;13.75;13.75;;;;;;;;5061192;28;9686;-75
2021/10/19 08:02:15;;;;;;;;;19.50;16.00;;;;;;;;5060439;28;8858;-74
2021/10/19 08:04:42;;;;;;;;;16.25;16.00;;;;;;;;5062527;28;8863;-75
2021/10/19 08:07:10;;;;;;;;;16.25;16.25;;;;;;;;5061911;28;9684;-75
2021/10/19 08:09:37;;;;;;;;;19.00;16.50;;;;;;;;5061204;28;8882;-74
2021/10/19 08:12:05;;;;;;;;;17.50;17.50;;;;;;;;5061165;28;8847;-75
2021/10/19 08:14:34;;;;;;;;;13.75;13.75;;;;;;;;5060089;28;8872;-76
2021/10/19 08:17:01;;;;;;;;;15.00;15.00;;;;;;;;5062156;28;8866;-75
2021/10/19 08:19:28;;;;;;;;;18.50;16.25;;;;;;;;5061718;28;9031;-75
2021/10/19 08:21:56;;;;;;;;;14.75;12.75;;;;;;;;5064249;28;8871;-75
2021/10/19 08:24:23;;;;;;;;;20.25;17.75;;;;;;;;5064798;28;8883;-74
2021/10/19 08:26:50;;;;;;;;;16.25;13.75;;;;;;;;5067370;28;8975;-75
2021/10/19 08:29:19;;;;;;;;;10.50;9.50;;;;;;;;5067118;28;8985;-75
2021/10/19 08:31:47;;;;;;;;;15.00;15.00;;;;;;;;5066009;28;8823;-75
2021/10/19 08:34:15;;;;;;;;;16.00;14.50;;;;;;;;5067188;28;8855;-75
2021/10/19 08:36:42;;;;;;;;;18.25;13.75;;;;;;;;5066540;28;8866;-75
2021/10/19 08:39:09;;;;;;;;;13.75;13.75;;;;;;;;5066793;28;8996;-74
2021/10/19 08:41:38;;;;;;;;;17.75;16.75;;;;;;;;5066172;28;8891;-75
2021/10/19 08:44:06;;;;;;;;;17.25;15.50;;;;;;;;5067391;28;8879;-75
2021/10/19 08:46:33;;;;;;;;;13.75;11.50;;;;;;;;5066750;28;9755;-75
2021/10/19 08:49:02;;;;;;;;;11.75;11.75;;;;;;;;5065981;28;8985;-75
2021/10/19 08:51:29;;;;;;;;;10.75;10.75;;;;;;;;5067204;28;8858;-75
2021/10/19 08:53:56;;;;;;;;;10.25;10.00;;;;;;;;5066328;28;8889;-75
2021/10/19 08:56:23;;;;;;;;;11.00;9.00;;;;;;;;5067050;28;8858;-75
2021/10/19 08:58:59;;;;;;;;;9.00;9.00;;;;;;;;5065376;28;8847;-75
2021/10/19 09:01:33;;;;;;;;;9.25;9.25;;;;;;;;5066688;28;8803;-75
2021/10/19 09:04:06;;;;;;;;;13.00;10.00;;;;;;;;5066590;28;8874;-75
2021/10/19 09:06:35;;;;;;;;;9.75;8.75;;;;;;;;5065830;28;8850;-75
2021/10/19 09:09:06;;;;;;;;;8.50;8.50;;;;;;;;5066352;28;8941;-75
2021/10/19 09:11:41;;;;;;;;;9.80;9.20;;;;;;;;5066138;28;8879;-75
2021/10/19 09:14:10;;;;;;;;;4.00;4.00;;;;;;;;5066715;28;8906;-75
2021/10/19 09:16:39;;;;;;;;;10.00;10.00;;;;;;;;5064288;28;9644;-76
2021/10/19 09:19:07;;;;;;;;;11.40;8.00;;;;;;;;5066535;28;8874;-75
2021/10/19 09:21:36;;;;;;;;;7.40;7.40;;;;;;;;5065533;28;8866;-75
2021/10/19 09:24:18;;;;;;;;;8.00;8.00;;;;;;;;5066078;28;8875;-75
2021/10/19 09:26:52;;;;;;;;;9.40;9.40;;;;;;;;5066619;28;8910;-75
2021/10/19 09:29:20;;;;;;;;;10.00;8.75;;;;;;;;5064373;28;8862;-75
2021/10/19 09:31:51;;;;;;;;;8.00;8.00;;;;;;;;5065960;28;8872;-75
2021/10/19 09:34:20;;;;;;;;;7.60;6.80;;;;;;;;5065903;28;8924;-76
2021/10/19 09:36:51;;;;;;;;;6.40;5.60;;;;;;;;5064855;28;8870;-75
2021/10/19 09:39:30;;;;;;;;;10.60;10.60;;;;;;;;5066178;28;8881;-76
2021/10/19 09:41:57;;;;;;;;;10.00;10.00;;;;;;;;5065154;28;9644;-75
2021/10/19 09:44:25;;;;;;;;;8.80;8.80;;;;;;;;5066186;28;8881;-75
2021/10/19 09:46:52;;;;;;;;;8.00;6.40;;;;;;;;5065054;28;8859;-76
2021/10/19 09:49:22;;;;;;;;;9.60;9.60;;;;;;;;5066024;28;8912;-76
2021/10/19 09:51:50;;;;;;;;;11.60;11.00;;;;;;;;5066066;28;8893;-75
2021/10/19 09:54:21;;;;;;;;;8.40;8.40;;;;;;;;5065152;28;8878;-75
2021/10/19 09:56:49;;;;;;;;;6.80;6.80;;;;;;;;5066107;28;8862;-76
2021/10/19 09:59:17;;;;;;;;;9.80;8.00;;;;;;;;5064298;28;8871;-76
2021/10/19 10:01:45;;;;;;;;;6.00;6.00;;;;;;;;5064899;28;8830;-76
2021/10/19 10:04:13;;;;;;;;;9.00;7.20;;;;;;;;5065152;28;8866;-76
2021/10/19 10:06:43;;;;;;;;;10.40;10.40;;;;;;;;5064291;28;8847;-76
2021/10/19 10:09:11;;;;;;;;;6.80;6.80;;;;;;;;5065302;28;9998;-76
2021/10/19 10:11:42;;;;;;;;;9.40;8.40;;;;;;;;5062539;28;8909;-75
2021/10/19 10:14:12;;;;;;;;;8.00;7.20;;;;;;;;5066524;28;8881;-75
2021/10/19 10:16:45;;;;;;;;;7.40;7.40;;;;;;;;5064097;28;8878;-75
2021/10/19 10:19:13;;;;;;;;;9.60;9.60;;;;;;;;5065363;28;8897;-76
2021/10/19 10:21:48;;;;;;;;;10.40;8.80;;;;;;;;5063480;28;8893;-76
2021/10/19 10:24:26;;;;;;;;;10.60;9.00;;;;;;;;5065480;28;8911;-76
2021/10/19 10:27:04;;;;;;;;;11.20;9.40;;;;;;;;5063564;28;9617;-75
2021/10/19 10:29:39;;;;;;;;;14.00;12.60;;;;;;;;5063548;28;9691;-75
2021/10/19 10:32:06;;;;;;;;;8.60;8.60;;;;;;;;5064878;28;8791;-75
2021/10/19 10:34:34;;;;;;;;;5.80;5.80;;;;;;;;5063548;28;9631;-76
2021/10/19 10:37:12;;;;;;;;;11.80;10.80;;;;;;;;5065023;28;8886;-75
2021/10/19 10:39:45;;;;;;;;;10.80;10.60;;;;;;;;5064615;28;8878;-75
2021/10/19 10:42:12;;;;;;;;;10.40;10.00;;;;;;;;5064154;28;9786;-76
2021/10/19 10:44:41;;;;;;;;;7.60;7.60;;;;;;;;5064962;28;8884;-75
2021/10/19 10:47:10;;;;;;;;;8.60;6.60;;;;;;;;5062703;28;8859;-75
2021/10/19 10:49:37;;;;;;;;;10.00;8.40;;;;;;;;5061921;28;8874;-75
2021/10/19 10:52:16;;;;;;;;;9.00;8.60;;;;;;;;5062954;28;8875;-75
2021/10/19 10:54:53;;;;;;;;;7.80;7.80;;;;;;;;5062159;28;8992;-76
2021/10/19 10:57:21;;;;;;;;;8.00;8.00;;;;;;;;5063503;28;8867;-75
2021/10/19 10:59:56;;;;;;;;;12.00;9.40;;;;;;;;5063071;28;8989;-75
2021/10/19 11:02:26;;;;;;;;;8.60;8.40;;;;;;;;5051970;28;8803;-76
2021/10/19 11:04:57;;;;;;;;;9.40;8.80;;;;;;;;5058844;28;8862;-76
2021/10/19 11:07:30;;;;;;;;;11.20;9.00;;;;;;;;5060258;28;8858;-75
2021/10/19 11:09:58;;;;;;;;;9.20;9.20;;;;;;;;5064243;28;8884;-75
2021/10/19 11:12:33;;;;;;;;;8.60;8.60;;;;;;;;5063348;28;8866;-74
2021/10/19 11:15:09;;;;;;;;;6.20;6.20;;;;;;;;5063670;28;8847;-73
2021/10/19 11:17:44;;;;;;;;;7.80;7.80;;;;;;;;5061773;28;8875;-74
2021/10/19 11:20:12;;;;;;;;;9.80;9.20;;;;;;;;5064050;28;9002;-72
2021/10/19 11:22:40;;;;;;;;;8.00;8.00;;;;;;;;5064105;28;8858;-73
2021/10/19 11:25:09;;;;;;;;;9.00;9.00;;;;;;;;5061877;28;8906;-73
2021/10/19 11:27:37;;;;;;;;;11.20;11.20;;;;;;;;5064230;28;8883;-73
2021/10/19 11:30:07;;;;;;;;;9.80;9.80;;;;;;;;5062072;28;9009;-73
2021/10/19 11:32:34;;;;;;;;;11.00;11.00;;;;;;;;5062622;28;8890;-73
2021/10/19 11:35:02;;;;;;;;;6.60;6.60;;;;;;;;5060968;28;8866;-73
2021/10/19 11:37:29;;;;;;;;;10.20;10.20;;;;;;;;5063918;28;8867;-74
2021/10/19 11:40:05;;;;;;;;;11.80;10.00;;;;;;;;5061678;28;8879;-73
2021/10/19 11:42:44;;;;;;;;;11.20;10.80;;;;;;;;5060870;28;8887;-73
2021/10/19 11:45:11;;;;;;;;;8.20;8.20;;;;;;;;5064274;28;8882;-73
2021/10/19 11:47:49;;;;;;;;;10.20;9.80;;;;;;;;5062777;28;9699;-74
2021/10/19 11:50:19;;;;;;;;;6.40;6.40;;;;;;;;5063711;28;8882;-73
2021/10/19 11:52:48;;;;;;;;;9.60;9.60;;;;;;;;5063147;28;8882;-74
2021/10/19 11:55:18;;;;;;;;;9.40;9.40;;;;;;;;5064036;28;8972;-74
2021/10/19 11:57:50;;;;;;;;;9.60;8.00;;;;;;;;5062792;28;8871;-74
2021/10/19 12:00:18;;;;;;;;;6.80;6.80;;;;;;;;5062021;28;8874;-74
2021/10/19 12:02:51;;;;;;;;;7.20;7.20;;;;;;;;5062561;28;9021;-74
2021/10/19 12:05:18;;;;;;;;;10.20;8.80;;;;;;;;5062956;28;8885;-74
2021/10/19 12:07:49;;;;;;;;;9.40;8.20;;;;;;;;5063637;28;8917;-74
2021/10/19 12:10:21;;;;;;;;;10.00;10.00;;;;;;;;5063088;28;8913;-74
2021/10/19 12:13:04;;;;;;;;;10.20;8.40;;;;;;;;5062849;28;8975;-74
2021/10/19 12:15:33;;;;;;;;;10.00;8.20;;;;;;;;5063906;28;8882;-74
2021/10/19 12:18:02;;;;;;;;;12.60;9.60;;;;;;;;5062178;28;8866;-74
2021/10/19 12:20:31;;;;;;;;;9.00;9.00;;;;;;;;5064115;28;8895;-74
2021/10/19 12:23:00;;;;;;;;;10.60;9.60;;;;;;;;5063151;28;8890;-74
2021/10/19 12:25:35;;;;;;;;;7.20;7.20;;;;;;;;5064163;28;9683;-74
2021/10/19 12:28:03;;;;;;;;;7.20;7.20;;;;;;;;5063133;28;8855;-74
2021/10/19 12:30:37;;;;;;;;;11.20;9.60;;;;;;;;5062389;28;8802;-73
2021/10/19 12:33:11;;;;;;;;;10.80;10.80;;;;;;;;5057320;28;8929;-74
2021/10/19 12:35:39;;;;;;;;;10.00;10.00;;;;;;;;5057871;28;9001;-74
2021/10/19 12:38:12;;;;;;;;;9.80;9.80;;;;;;;;5060390;28;8882;-74
2021/10/19 12:40:46;;;;;;;;;10.60;9.00;;;;;;;;5062407;28;8869;-74
2021/10/19 12:43:13;;;;;;;;;9.00;9.00;;;;;;;;5063292;28;8879;-74
2021/10/19 12:45:40;;;;;;;;;10.00;10.00;;;;;;;;5063192;28;8870;-74
2021/10/19 12:48:08;;;;;;;;;8.80;8.80;;;;;;;;5062363;28;8960;-73
2021/10/19 12:50:37;;;;;;;;;13.60;13.60;;;;;;;;5063074;28;8870;-74
2021/10/19 12:53:04;;;;;;;;;8.20;8.20;;;;;;;;5063181;28;8878;-74
2021/10/19 12:55:31;;;;;;;;;14.60;13.00;;;;;;;;5063274;28;8870;-74
2021/10/19 12:58:00;;;;;;;;;9.20;8.60;;;;;;;;5062043;28;8973;-74
2021/10/19 13:00:27;;;;;;;;;10.00;8.60;;;;;;;;5062485;28;8787;-74
2021/10/19 13:02:55;;;;;;;;;9.60;9.60;;;;;;;;5063104;28;9006;-74
2021/10/19 13:05:22;;;;;;;;;10.20;10.20;;;;;;;;5061641;28;8851;-74
2021/10/19 13:07:49;;;;;;;;;12.00;10.80;;;;;;;;5050599;28;8850;-74
2021/10/19 13:10:16;;;;;;;;;12.00;10.20;;;;;;;;5062268;28;8887;-74
2021/10/19 13:12:44;;;;;;;;;13.60;10.60;;;;;;;;5066865;28;8854;-74
2021/10/19 13:15:13;;;;;;;;;11.40;10.40;;;;;;;;5065185;28;8885;-74
2021/10/19 13:17:40;;;;;;;;;11.40;9.00;;;;;;;;5067012;28;8862;-74
2021/10/19 13:20:11;;;;;;;;;9.80;9.80;;;;;;;;5066206;28;8999;-74
2021/10/19 13:22:38;;;;;;;;;9.60;9.60;;;;;;;;5066204;28;9017;-74
2021/10/19 13:25:06;;;;;;;;;9.00;9.00;;;;;;;;5066678;28;8847;-74
2021/10/19 13:27:34;;;;;;;;;10.40;10.40;;;;;;;;5065283;28;9013;-74
2021/10/19 13:30:01;;;;;;;;;10.40;10.40;;;;;;;;5066103;28;8890;-74
2021/10/19 13:32:30;;;;;;;;;11.20;11.20;;;;;;;;5063613;28;9625;-74
2021/10/19 13:34:57;;;;;;;;;9.40;9.40;;;;;;;;5063514;28;8963;-75
2021/10/19 13:37:25;;;;;;;;;11.40;11.40;;;;;;;;5065332;28;9699;-74
2021/10/19 13:39:52;;;;;;;;;11.80;11.80;;;;;;;;5061328;28;8854;-74
2021/10/19 13:42:20;;;;;;;;;13.80;12.00;;;;;;;;5066634;28;8866;-75
2021/10/19 13:44:47;;;;;;;;;14.20;12.20;;;;;;;;5064700;28;9837;-75
2021/10/19 13:47:14;;;;;;;;;11.20;11.20;;;;;;;;5066105;28;8871;-74
2021/10/19 13:49:43;;;;;;;;;11.60;11.60;;;;;;;;5064662;28;8905;-75
2021/10/19 13:52:11;;;;;;;;;9.80;9.80;;;;;;;;5066639;28;8870;-75
2021/10/19 13:54:39;;;;;;;;;8.00;8.00;;;;;;;;5065397;28;9412;-75
2021/10/19 13:57:08;;;;;;;;;11.60;11.60;;;;;;;;5063908;28;8882;-74
2021/10/19 13:59:35;;;;;;;;;13.40;13.40;;;;;;;;5064384;28;9679;-75
2021/10/19 14:02:03;;;;;;;;;9.20;9.00;;;;;;;;5064475;28;8799;-75
2021/10/19 14:04:31;;;;;;;;;7.20;7.20;;;;;;;;5065563;28;8985;-75
2021/10/19 14:07:00;;;;;;;;;9.40;9.40;;;;;;;;5064317;28;8969;-74
2021/10/19 14:09:28;;;;;;;;;8.00;8.00;;;;;;;;5065868;28;9001;-74
2021/10/19 14:11:57;;;;;;;;;8.40;8.40;;;;;;;;5063517;28;8886;-75
2021/10/19 14:14:25;;;;;;;;;9.80;9.80;;;;;;;;5065200;28;8910;-75
2021/10/19 14:16:53;;;;;;;;;8.60;8.60;;;;;;;;5065551;28;8862;-74
2021/10/19 14:19:21;;;;;;;;;8.40;8.20;;;;;;;;5064559;28;8885;-73
2021/10/19 14:21:48;;;;;;;;;7.80;7.80;;;;;;;;5065560;28;8874;-75
2021/10/19 14:24:18;;;;;;;;;8.40;8.40;;;;;;;;5064777;28;8979;-74
2021/10/19 14:26:45;;;;;;;;;11.00;9.00;;;;;;;;5064484;28;8866;-75
2021/10/19 14:29:13;;;;;;;;;8.00;8.00;;;;;;;;5064478;28;8862;-74
2021/10/19 14:31:42;;;;;;;;;9.00;7.60;;;;;;;;5064364;28;8826;-74
2021/10/19 14:34:10;;;;;;;;;8.20;8.00;;;;;;;;5065459;28;8831;-74
2021/10/19 14:36:38;;;;;;;;;9.00;8.00;;;;;;;;5063305;28;8878;-74
2021/10/19 14:39:05;;;;;;;;;8.20;8.20;;;;;;;;5064488;28;8892;-74
2021/10/19 14:41:33;;;;;;;;;9.60;8.00;;;;;;;;5063800;28;8874;-74
2021/10/19 14:44:01;;;;;;;;;6.80;6.00;;;;;;;;5065375;28;8901;-74